createdAt,value
2018-05-10T00:03:20.915Z,19.3
2018-05-10T00:08:15.447Z,19.3
2018-05-10T00:13:09.758Z,19.2
2018-05-10T00:18:04.456Z,19.1
2018-05-10T00:22:58.989Z,19.2
2018-05-10T00:27:53.121Z,19.1
2018-05-10T00:32:47.447Z,19.1
2018-05-10T00:37:42.276Z,19.1
2018-05-10T00:47:37.736Z,19
2018-05-10T00:52:32.320Z,19
2018-05-10T00:57:27.417Z,19
2018-05-10T01:02:21.916Z,18.9
2018-05-10T01:07:16.378Z,18.7
2018-05-10T01:12:11.195Z,18.7
2018-05-10T01:17:06.072Z,18.7
2018-05-10T01:22:01.745Z,18.7
2018-05-10T01:26:57.732Z,18.7
2018-05-10T01:31:53.202Z,18.7
2018-05-10T01:36:47.893Z,18.7
2018-05-10T01:41:42.396Z,18.5
2018-05-10T01:46:36.925Z,18.5
2018-05-10T01:51:31.848Z,18.4
2018-05-10T01:56:26.217Z,18.4
2018-05-10T02:01:20.760Z,18.4
2018-05-10T02:06:15.884Z,18.3
2018-05-10T02:11:10.510Z,18.3
2018-05-10T02:16:05.011Z,18.4
2018-05-10T02:20:59.611Z,18.3
2018-05-10T02:25:54.380Z,18.3
2018-05-10T02:30:48.728Z,18.3
2018-05-10T02:35:42.520Z,18.2
2018-05-10T02:40:36.895Z,18.1
2018-05-10T02:45:31.627Z,18.1
2018-05-10T02:50:25.980Z,18.2
2018-05-10T02:55:21.041Z,18.1
2018-05-10T03:00:15.341Z,18.1
2018-05-10T03:05:10.261Z,18.1
2018-05-10T03:10:04.823Z,18
2018-05-10T03:14:59.509Z,18
2018-05-10T03:19:54.047Z,18
2018-05-10T03:24:48.574Z,17.9
2018-05-10T03:29:43.330Z,17.9
2018-05-10T03:34:37.936Z,17.9
2018-05-10T03:39:32.769Z,17.8
2018-05-10T03:44:27.260Z,17.9
2018-05-10T03:49:21.856Z,17.9
2018-05-10T03:54:16.372Z,17.9
2018-05-10T03:59:10.998Z,17.8
2018-05-10T04:04:06.262Z,18
2018-05-10T04:09:01.040Z,18
2018-05-10T04:13:55.816Z,18
2018-05-10T04:18:50.550Z,18.1
2018-05-10T04:23:45.115Z,18.1
2018-05-10T04:28:39.232Z,18.1
2018-05-10T04:33:34.691Z,18.1
2018-05-10T04:38:30.172Z,18.2
2018-05-10T04:43:25.430Z,18.2
2018-05-10T04:48:19.780Z,18.3
2018-05-10T04:53:18.661Z,18.3
2018-05-10T04:58:17.013Z,18.3
2018-05-10T05:03:16.062Z,18.4
2018-05-10T05:08:14.454Z,18.4
2018-05-10T05:13:12.834Z,18.4
2018-05-10T05:18:11.840Z,18.4
2018-05-10T05:23:09.065Z,18.5
2018-05-10T05:28:06.045Z,18.5
2018-05-10T05:33:03.448Z,18.6
2018-05-10T05:37:58.834Z,18.5
2018-05-10T05:42:53.716Z,18.7
2018-05-10T05:47:48.578Z,18.7
2018-05-10T05:52:43.162Z,18.7
2018-05-10T05:57:37.693Z,18.8
2018-05-10T06:02:32.387Z,18.9
2018-05-10T06:07:27.406Z,18.9
2018-05-10T06:12:21.727Z,19.1
2018-05-10T06:17:16.194Z,19.1
2018-05-10T06:22:10.642Z,19.2
2018-05-10T06:27:05.681Z,19.2
2018-05-10T06:31:59.822Z,19.2
2018-05-10T06:36:54.898Z,19.3
2018-05-10T06:41:49.871Z,19.3
2018-05-10T06:46:44.348Z,19.4
2018-05-10T06:51:38.350Z,19.4
2018-05-10T06:56:33.461Z,19.5
2018-05-10T07:01:28.029Z,19.6
2018-05-10T07:06:22.892Z,19.6
2018-05-10T07:11:17.031Z,19.7
2018-05-10T07:16:11.465Z,19.7
2018-05-10T07:21:06.357Z,19.5
2018-05-10T07:26:00.873Z,19.7
2018-05-10T07:30:55.274Z,19.7
2018-05-10T07:35:49.934Z,19.6
2018-05-10T07:40:44.762Z,19.7
2018-05-10T07:45:39.616Z,19.7
2018-05-10T07:50:34.595Z,19.7
2018-05-10T07:55:29.541Z,19.8
2018-05-10T08:00:23.645Z,19.9
2018-05-10T08:05:18.018Z,19.9
2018-05-10T08:10:13.388Z,20.1
2018-05-10T08:48:06.086Z,21.4
2018-05-10T08:52:46.175Z,21
2018-05-10T08:57:41.464Z,20.8
2018-05-10T09:02:37.291Z,20.7
2018-05-10T09:07:33.525Z,20.6
2018-05-10T09:12:28.182Z,20.6
2018-05-10T09:17:23.628Z,20.6
2018-05-10T09:22:17.719Z,20.7
2018-05-10T09:27:12.436Z,20.7
2018-05-10T09:32:06.846Z,20.8
2018-05-10T09:37:01.973Z,20.9
2018-05-10T09:41:57.095Z,21.2
2018-05-10T09:46:51.817Z,21.4
2018-05-10T09:51:47.640Z,21.5
2018-05-10T09:56:42.762Z,21.6
2018-05-10T10:06:39.100Z,21.8
2018-05-10T10:11:33.792Z,21.7
2018-05-10T10:16:28.515Z,21.5
2018-05-10T10:21:22.794Z,21.4
2018-05-10T10:26:17.267Z,21.2
2018-05-10T10:31:12.214Z,21.2
2018-05-10T10:36:07.215Z,21.1
2018-05-10T10:41:02.104Z,21.1
2018-05-10T10:45:56.717Z,21.1
2018-05-10T10:50:51.132Z,21.1
2018-05-10T10:55:46.308Z,21.2
2018-05-10T11:00:41.189Z,21.1
2018-05-10T11:05:36.009Z,21.2
2018-05-10T11:10:31.106Z,21.3
2018-05-10T11:15:26.122Z,21.3
2018-05-10T11:20:20.544Z,21.3
2018-05-10T11:25:15.686Z,21.5
2018-05-10T11:30:10.713Z,21.5
2018-05-10T11:35:05.905Z,21.9
2018-05-10T11:40:01.172Z,22
2018-05-10T11:44:55.763Z,21.7
2018-05-10T11:49:49.747Z,21.4
2018-05-10T11:54:44.487Z,21.1
2018-05-10T11:59:39.252Z,20.9
2018-05-10T12:04:33.466Z,20.7
2018-05-10T12:09:28.438Z,20.5
2018-05-10T12:14:22.861Z,20.5
2018-05-10T12:19:17.335Z,20.4
2018-05-10T12:24:12.279Z,20.3
2018-05-10T12:29:07.087Z,20.3
2018-05-10T12:34:01.400Z,20.3
2018-05-10T12:38:56.285Z,20.4
2018-05-10T12:43:50.860Z,20.5
2018-05-10T12:48:45.714Z,20.6
2018-05-10T12:53:40.751Z,20.4
2018-05-10T12:58:35.626Z,20.5
2018-05-10T13:03:30.122Z,20.6
2018-05-10T13:08:25.165Z,20.5
2018-05-10T13:13:19.646Z,20.6
2018-05-10T13:18:14.054Z,20.4
2018-05-10T13:23:08.347Z,20.4
2018-05-10T13:28:03.106Z,20.2
2018-05-10T13:32:57.474Z,20.2
2018-05-10T13:37:52.002Z,20.3
2018-05-10T13:42:47.064Z,20.2
2018-05-10T13:47:41.366Z,20.1
2018-05-10T13:52:36.459Z,20.1
2018-05-10T13:57:30.877Z,20.1
2018-05-10T14:02:25.360Z,20.1
2018-05-10T14:07:19.676Z,20.2
2018-05-10T14:12:14.770Z,20.1
2018-05-10T14:17:09.357Z,20.1
2018-05-10T14:22:03.912Z,20
2018-05-10T14:26:58.401Z,20
2018-05-10T14:31:53.005Z,20
2018-05-10T14:36:47.962Z,19.9
2018-05-10T14:41:42.689Z,20
2018-05-10T14:46:37.597Z,20
2018-05-10T14:51:32.507Z,20
2018-05-10T14:56:27.026Z,20
2018-05-10T15:01:21.317Z,20
2018-05-10T15:06:16.340Z,20
2018-05-10T15:11:11.186Z,19.9
2018-05-10T15:16:06.051Z,19.9
2018-05-10T15:21:00.993Z,19.9
2018-05-10T15:25:55.481Z,19.9
2018-05-10T15:30:50.094Z,19.9
2018-05-10T15:35:44.631Z,20
2018-05-10T15:40:39.277Z,19.9
2018-05-10T15:45:33.866Z,20
2018-05-10T15:50:28.819Z,19.9
2018-05-10T15:55:23.567Z,20
2018-05-10T16:00:18.555Z,19.9
2018-05-10T16:05:12.745Z,19.9
2018-05-10T16:10:07.093Z,19.7
2018-05-10T16:15:01.813Z,19.8
2018-05-10T16:19:56.595Z,19.8
2018-05-10T16:24:50.818Z,19.7
2018-05-10T16:29:45.788Z,19.7
2018-05-10T16:34:40.333Z,19.8
2018-05-10T16:39:35.374Z,19.9
2018-05-10T16:44:29.433Z,19.9
2018-05-10T16:49:24.037Z,19.8
2018-05-10T16:54:18.438Z,19.7
2018-05-10T16:59:13.403Z,19.6
2018-05-10T17:04:08.215Z,19.6
2018-05-10T17:09:02.521Z,19.6
2018-05-10T17:13:56.742Z,19.5
2018-05-10T17:18:51.882Z,19.4
2018-05-10T17:23:46.329Z,19.4
2018-05-10T17:28:41.006Z,19.2
2018-05-10T17:33:36.000Z,19.2
2018-05-10T17:38:30.520Z,19.2
2018-05-10T17:43:25.766Z,19.2
2018-05-10T17:48:21.861Z,19.1
2018-05-10T17:53:16.865Z,19.1
2018-05-10T17:58:11.853Z,19.1
2018-05-10T18:03:06.808Z,19.1
2018-05-10T18:08:01.331Z,19.1
2018-05-10T18:12:56.061Z,19
2018-05-10T18:17:51.093Z,19.1
2018-05-10T18:22:46.092Z,18.9
2018-05-10T18:27:40.906Z,19
2018-05-10T18:32:35.807Z,18.9
2018-05-10T18:37:30.736Z,18.8
2018-05-10T18:42:25.666Z,18.8
2018-05-10T18:47:20.087Z,18.8
2018-05-10T18:52:15.078Z,18.7
2018-05-10T18:57:09.911Z,18.7
2018-05-10T19:02:04.547Z,18.6
2018-05-10T19:06:59.188Z,18.6
2018-05-10T19:11:54.182Z,18.6
2018-05-10T19:16:48.611Z,18.6
2018-05-10T19:21:43.725Z,18.6
2018-05-10T19:26:38.766Z,18.6
2018-05-10T19:31:33.435Z,18.5
2018-05-10T19:36:28.093Z,18.4
2018-05-10T19:41:23.020Z,18.5
2018-05-10T19:46:18.007Z,18.5
2018-05-10T19:51:12.882Z,18.3
2018-05-10T19:56:07.714Z,18.4
2018-05-10T20:01:02.565Z,18.3
2018-05-10T20:05:57.706Z,18.3
2018-05-10T20:10:52.598Z,18.3
2018-05-10T20:15:47.661Z,18.3
2018-05-10T20:20:42.668Z,18.3
2018-05-10T20:25:37.172Z,18.3
2018-05-10T20:30:32.098Z,18.3
2018-05-10T20:35:26.945Z,18.3
2018-05-10T20:40:21.709Z,18.2
2018-05-10T20:45:16.351Z,18.1
2018-05-10T20:50:11.366Z,18.1
2018-05-10T20:55:06.305Z,18.1
2018-05-10T21:00:01.397Z,18.1
2018-05-10T21:04:56.119Z,18.2
2018-05-10T21:09:50.784Z,18.2
2018-05-10T21:14:45.936Z,18.1
2018-05-10T21:19:40.571Z,18
2018-05-10T21:24:35.408Z,18.1
2018-05-10T21:29:29.892Z,18.1
2018-05-10T21:34:24.810Z,18.1
2018-05-10T21:39:19.713Z,18.2
2018-05-10T21:44:14.605Z,18
2018-05-10T21:49:08.929Z,18.1
2018-05-10T21:54:03.687Z,18.2
2018-05-10T21:58:58.152Z,18.1
2018-05-10T22:03:52.880Z,18.2
2018-05-10T22:08:47.626Z,18.2
2018-05-10T22:13:42.324Z,18.2
2018-05-10T22:18:37.023Z,18.2
2018-05-10T22:23:31.601Z,18.1
2018-05-10T22:28:25.946Z,18.1
2018-05-10T22:33:20.890Z,18.1
2018-05-10T22:38:15.871Z,18.1
2018-05-10T22:43:10.750Z,18
2018-05-10T22:48:05.212Z,18
2018-05-10T22:52:59.949Z,18.1
2018-05-10T22:57:54.542Z,18
2018-05-10T23:02:49.540Z,18
2018-05-10T23:07:44.578Z,17.9
2018-05-10T23:12:39.558Z,17.9
2018-05-10T23:17:34.256Z,18
2018-05-10T23:22:29.287Z,17.9
2018-05-10T23:27:23.933Z,17.9
2018-05-10T23:32:18.890Z,17.9
2018-05-10T23:37:13.652Z,17.8
2018-05-10T23:42:08.230Z,17.8
2018-05-10T23:47:03.380Z,17.8
2018-05-10T23:51:58.319Z,17.8
2018-05-10T23:56:52.567Z,17.7
